Time;durP1;ratioP1;P1;durP2;ratioP2;P2;SDS_P1;SDS_P2;PMS_P1;PMS_P2;Temp;Humidity;BMP_temperature;BMP_pressure;BME280_temperature;BME280_humidity;BME280_pressure;Samples;Min_cycle;Max_cycle;Signal;HPM_P1;HPM_P2
2022/01/31 00:02:08;;;;;;;11.88;3.75;;;8.50;88.20;;;;;;5032198;28;20227;-64
2022/01/31 00:04:35;;;;;;;17.70;4.30;;;8.40;87.90;;;;;;5031714;28;20219;-65
2022/01/31 00:07:03;;;;;;;7.95;4.30;;;8.40;88.40;;;;;;5031664;28;20231;-64
2022/01/31 00:09:29;;;;;;;7.68;2.92;;;8.40;88.50;;;;;;5031616;28;20222;-65
2022/01/31 00:12:00;;;;;;;6.05;3.25;;;8.50;88.60;;;;;;5032182;28;20229;-65
2022/01/31 00:14:35;;;;;;;14.07;4.00;;;8.50;88.60;;;;;;5031413;28;20234;-64
2022/01/31 00:17:03;;;;;;;15.80;3.95;;;8.50;88.30;;;;;;5024347;28;20214;-64
2022/01/31 00:19:30;;;;;;;11.63;4.75;;;8.50;88.40;;;;;;5031080;28;20574;-64
2022/01/31 00:21:58;;;;;;;10.95;3.45;;;8.50;88.00;;;;;;5031990;28;20240;-64
2022/01/31 00:24:24;;;;;;;10.93;3.90;;;8.50;88.40;;;;;;5030819;28;20760;-64
2022/01/31 00:26:52;;;;;;;11.88;3.13;;;8.50;88.30;;;;;;5031974;28;20690;-64
2022/01/31 00:29:18;;;;;;;15.23;4.72;;;8.50;88.60;;;;;;5031184;28;20250;-64
2022/01/31 00:31:45;;;;;;;12.07;5.07;;;8.50;88.80;;;;;;5031933;28;20231;-64
2022/01/31 00:34:13;;;;;;;9.82;3.10;;;8.50;89.40;;;;;;5045225;28;20230;-64
2022/01/31 00:36:40;;;;;;;10.55;3.50;;;8.50;90.10;;;;;;5029420;28;20977;-64
2022/01/31 00:39:07;;;;;;;8.25;3.60;;;8.40;90.40;;;;;;5033963;28;20223;-64
2022/01/31 00:41:34;;;;;;;12.60;4.28;;;8.50;90.60;;;;;;5043542;28;20229;-64
2022/01/31 00:44:12;;;;;;;20.75;5.70;;;8.50;91.10;;;;;;5045888;28;20547;-64
2022/01/31 00:46:42;;;;;;;13.68;3.72;;;8.50;91.10;;;;;;5035021;28;20302;-65
2022/01/31 00:49:16;;;;;;;12.88;4.47;;;8.40;91.40;;;;;;5035727;28;20220;-64
2022/01/31 00:51:44;;;;;;;12.02;5.55;;;8.50;91.70;;;;;;5032237;28;20938;-64
2022/01/31 00:54:11;;;;;;;8.32;4.05;;;8.40;92.00;;;;;;5034780;28;20243;-64
2022/01/31 00:56:37;;;;;;;12.15;3.92;;;8.40;92.50;;;;;;5050654;28;20235;-64
2022/01/31 00:59:04;;;;;;;16.83;5.00;;;8.30;92.60;;;;;;5035505;28;20229;-64
2022/01/31 01:01:31;;;;;;;13.65;4.00;;;8.30;92.90;;;;;;5034812;28;20964;-64
2022/01/31 01:03:58;;;;;;;11.85;4.78;;;8.20;93.20;;;;;;5038163;28;20214;-64
2022/01/31 01:06:25;;;;;;;11.52;4.65;;;8.20;93.50;;;;;;5031512;28;20231;-64
2022/01/31 01:08:53;;;;;;;15.13;5.47;;;8.20;93.80;;;;;;5034941;28;20310;-64
2022/01/31 01:11:20;;;;;;;15.68;6.75;;;8.20;94.10;;;;;;5034046;28;20231;-64
2022/01/31 01:13:46;;;;;;;20.98;4.35;;;8.20;94.80;;;;;;5030477;28;20763;-64
2022/01/31 01:16:13;;;;;;;21.30;6.00;;;8.10;96.10;;;;;;5035109;28;20295;-64
2022/01/31 01:18:40;;;;;;;21.52;5.47;;;8.10;96.70;;;;;;5034375;28;20244;-64
2022/01/31 01:21:07;;;;;;;12.35;4.00;;;8.00;97.20;;;;;;5035017;28;20677;-65
2022/01/31 01:23:34;;;;;;;13.52;5.45;;;8.00;97.50;;;;;;5032924;28;20237;-65
2022/01/31 01:26:02;;;;;;;21.90;4.95;;;7.90;97.70;;;;;;5034900;28;20215;-65
2022/01/31 01:28:30;;;;;;;14.40;5.00;;;7.90;97.70;;;;;;5036865;28;20685;-64
2022/01/31 01:30:57;;;;;;;12.88;5.13;;;7.90;97.80;;;;;;5035298;28;20235;-65
2022/01/31 01:33:25;;;;;;;15.75;6.60;;;7.90;98.00;;;;;;5039862;28;20311;-65
2022/01/31 01:35:54;;;;;;;15.75;5.25;;;7.90;98.10;;;;;;5037239;28;20238;-65
2022/01/31 01:38:27;;;;;;;12.52;3.80;;;7.90;98.20;;;;;;5035657;28;20250;-66
2022/01/31 01:40:55;;;;;;;16.83;4.90;;;7.80;98.40;;;;;;5040835;28;20222;-65
2022/01/31 01:43:23;;;;;;;17.88;5.10;;;7.90;98.50;;;;;;5048111;28;20245;-65
2022/01/31 01:45:52;;;;;;;19.25;4.40;;;7.80;98.50;;;;;;5035110;28;20310;-64
2022/01/31 01:48:21;;;;;;;9.25;4.57;;;7.80;98.40;;;;;;5029639;28;20707;-64
2022/01/31 01:50:49;;;;;;;21.77;4.75;;;7.90;98.60;;;;;;5033430;28;20235;-64
2022/01/31 01:53:15;;;;;;;17.45;4.55;;;7.90;98.60;;;;;;5034054;28;20218;-64
2022/01/31 01:55:45;;;;;;;16.50;4.47;;;7.90;98.20;;;;;;5024471;28;20251;-65
2022/01/31 01:58:15;;;;;;;13.45;4.20;;;7.90;98.10;;;;;;5030967;28;20238;-64
2022/01/31 02:00:51;;;;;;;13.82;4.05;;;7.90;97.80;;;;;;5033527;28;20319;-65
2022/01/31 02:03:18;;;;;;;15.23;5.60;;;7.90;97.70;;;;;;5030970;28;20235;-66
2022/01/31 02:05:46;;;;;;;14.07;4.43;;;7.90;97.70;;;;;;5029372;28;20225;-64
2022/01/31 02:08:14;;;;;;;12.23;4.68;;;7.90;97.80;;;;;;5021025;28;20239;-65
2022/01/31 02:10:41;;;;;;;16.60;6.03;;;7.90;97.70;;;;;;5032490;28;20241;-65
2022/01/31 02:13:10;;;;;;;12.40;5.32;;;7.90;97.60;;;;;;5017256;28;20670;-65
2022/01/31 02:15:38;;;;;;;15.32;5.95;;;7.90;97.20;;;;;;5026980;28;20254;-65
2022/01/31 02:18:07;;;;;;;12.30;4.45;;;8.00;96.70;;;;;;5030955;28;20232;-65
2022/01/31 02:20:39;;;;;;;17.25;4.95;;;8.00;96.80;;;;;;5029105;28;20239;-65
2022/01/31 02:23:07;;;;;;;14.18;4.85;;;8.00;96.80;;;;;;5027152;28;20226;-65
2022/01/31 02:25:34;;;;;;;14.43;5.47;;;8.00;96.80;;;;;;5030020;28;20234;-65
2022/01/31 02:28:04;;;;;;;11.95;4.35;;;8.10;96.00;;;;;;5030677;28;20223;-65
2022/01/31 02:30:31;;;;;;;17.75;5.50;;;8.00;96.20;;;;;;5028114;28;20234;-65
2022/01/31 02:32:58;;;;;;;16.13;4.60;;;8.00;96.20;;;;;;5030746;28;20241;-65
2022/01/31 02:35:25;;;;;;;12.70;5.75;;;8.00;96.20;;;;;;5020082;28;20226;-65
2022/01/31 02:37:53;;;;;;;17.45;5.93;;;8.00;96.20;;;;;;5032708;28;20228;-65
2022/01/31 02:40:20;;;;;;;16.67;4.50;;;8.00;95.70;;;;;;5033220;28;20242;-65
2022/01/31 02:42:47;;;;;;;16.80;4.55;;;8.00;95.40;;;;;;5021752;28;20243;-65
2022/01/31 02:45:14;;;;;;;12.13;4.05;;;8.00;95.60;;;;;;5026922;28;20238;-65
2022/01/31 02:47:49;;;;;;;17.13;4.80;;;8.00;95.30;;;;;;5025320;28;20226;-63
2022/01/31 02:50:16;;;;;;;10.90;3.78;;;8.00;95.20;;;;;;5015602;28;20231;-64
2022/01/31 02:52:47;;;;;;;16.60;4.55;;;8.00;94.80;;;;;;5014554;28;20678;-64
2022/01/31 02:55:16;;;;;;;15.82;4.60;;;8.00;94.90;;;;;;5051592;28;20237;-64
2022/01/31 02:57:43;;;;;;;12.60;4.18;;;8.00;94.90;;;;;;5042912;28;20239;-64
2022/01/31 03:00:11;;;;;;;16.77;4.35;;;8.00;95.00;;;;;;5018501;28;20246;-64
2022/01/31 03:02:39;;;;;;;12.07;4.38;;;8.00;94.90;;;;;;5033100;28;20228;-64
2022/01/31 03:05:06;;;;;;;22.27;4.43;;;7.90;95.10;;;;;;5041427;28;20247;-64
2022/01/31 03:07:34;;;;;;;11.95;4.53;;;7.90;95.10;;;;;;5033688;28;20223;-63
2022/01/31 03:10:01;;;;;;;16.27;5.55;;;8.00;94.80;;;;;;5032685;28;20223;-64
2022/01/31 03:12:29;;;;;;;13.75;5.65;;;7.90;95.00;;;;;;5033858;28;20764;-65
2022/01/31 03:14:56;;;;;;;14.38;4.50;;;7.90;95.10;;;;;;5043961;28;20919;-64
2022/01/31 03:17:23;;;;;;;11.15;5.20;;;7.90;95.10;;;;;;5037024;28;20257;-64
2022/01/31 03:19:53;;;;;;;21.80;5.68;;;7.90;95.10;;;;;;5032392;28;20232;-64
2022/01/31 03:22:21;;;;;;;16.70;4.72;;;7.90;95.00;;;;;;5032761;28;20227;-64
2022/01/31 03:24:48;;;;;;;15.60;5.43;;;8.00;94.70;;;;;;5018802;28;20224;-64
2022/01/31 03:27:16;;;;;;;8.75;4.03;;;7.90;94.70;;;;;;5028786;28;20534;-64
2022/01/31 03:29:44;;;;;;;13.15;4.10;;;7.90;94.80;;;;;;5039710;28;20227;-65
2022/01/31 03:32:11;;;;;;;13.15;4.55;;;8.00;94.30;;;;;;5036466;28;20242;-65
2022/01/31 03:34:38;;;;;;;8.82;3.88;;;8.00;94.40;;;;;;5041578;28;20711;-65
2022/01/31 03:37:05;;;;;;;12.77;4.63;;;7.90;94.50;;;;;;5037711;28;20222;-65
2022/01/31 03:39:34;;;;;;;16.00;5.03;;;7.90;94.40;;;;;;5028987;28;20286;-65
2022/01/31 03:42:01;;;;;;;13.18;4.57;;;7.90;94.60;;;;;;5036921;28;20220;-65
2022/01/31 03:44:29;;;;;;;12.98;6.00;;;7.90;94.50;;;;;;5037594;28;20221;-65
2022/01/31 03:46:57;;;;;;;17.25;4.22;;;7.90;94.50;;;;;;5035265;28;20226;-65
2022/01/31 03:49:25;;;;;;;11.35;4.45;;;7.90;94.50;;;;;;5032072;28;20231;-65
2022/01/31 03:51:52;;;;;;;18.02;4.20;;;7.90;94.40;;;;;;5031983;28;20241;-65
2022/01/31 03:54:18;;;;;;;16.40;5.38;;;7.90;94.30;;;;;;5033275;28;20589;-64
2022/01/31 03:56:45;;;;;;;22.38;5.47;;;8.00;94.30;;;;;;5039767;28;20232;-63
2022/01/31 03:59:12;;;;;;;14.13;4.00;;;7.90;94.40;;;;;;5034054;28;20240;-65
2022/01/31 04:01:51;;;;;;;12.35;4.65;;;7.90;94.40;;;;;;5032048;28;20231;-65
2022/01/31 04:04:20;;;;;;;18.80;5.35;;;7.90;94.50;;;;;;5031051;28;20577;-64
2022/01/31 04:06:46;;;;;;;16.02;4.68;;;7.80;94.50;;;;;;5031979;28;20319;-64
2022/01/31 04:09:13;;;;;;;31.67;5.90;;;7.80;94.70;;;;;;5018591;28;20231;-64
2022/01/31 04:11:43;;;;;;;19.48;4.78;;;7.80;94.50;;;;;;5029244;28;20222;-64
2022/01/31 04:14:10;;;;;;;14.63;4.38;;;7.80;94.40;;;;;;5021476;28;20311;-64
2022/01/31 04:16:37;;;;;;;19.60;4.97;;;7.80;94.30;;;;;;5031632;28;20314;-65
2022/01/31 04:19:06;;;;;;;10.68;5.05;;;7.80;94.40;;;;;;5023551;28;20239;-65
2022/01/31 04:21:34;;;;;;;14.07;5.28;;;7.80;94.50;;;;;;5025264;28;20305;-65
2022/01/31 04:24:02;;;;;;;14.48;5.10;;;7.80;94.50;;;;;;5018698;28;20230;-64
2022/01/31 04:26:33;;;;;;;18.13;4.10;;;7.80;94.30;;;;;;5021476;28;20545;-65
2022/01/31 04:29:06;;;;;;;20.08;4.70;;;7.80;94.30;;;;;;5026871;28;20246;-65
2022/01/31 04:31:39;;;;;;;14.52;5.05;;;7.80;94.40;;;;;;5019920;28;20250;-65
2022/01/31 04:34:06;;;;;;;15.43;5.00;;;7.80;94.20;;;;;;5018160;28;20219;-65
2022/01/31 04:36:34;;;;;;;17.92;5.03;;;7.80;94.30;;;;;;5030568;28;20227;-65
2022/01/31 04:39:02;;;;;;;14.32;4.18;;;7.70;94.30;;;;;;5018938;28;20224;-65
2022/01/31 04:41:29;;;;;;;16.88;6.20;;;7.70;94.40;;;;;;5017437;28;20286;-65
2022/01/31 04:44:00;;;;;;;17.20;5.18;;;7.70;94.30;;;;;;5024806;28;20227;-65
2022/01/31 04:46:27;;;;;;;18.27;5.40;;;7.70;94.40;;;;;;5024956;28;20227;-65
2022/01/31 04:48:54;;;;;;;23.00;4.88;;;7.70;94.40;;;;;;5018488;28;20293;-65
2022/01/31 04:51:20;;;;;;;18.02;3.97;;;7.60;94.40;;;;;;5019963;28;20230;-65
2022/01/31 04:53:49;;;;;;;19.08;5.18;;;7.60;94.40;;;;;;5018009;28;20646;-65
2022/01/31 04:56:15;;;;;;;12.75;5.43;;;7.60;94.50;;;;;;5031153;28;20242;-65
2022/01/31 04:58:42;;;;;;;14.63;5.40;;;7.60;94.50;;;;;;5023073;28;20221;-64
2022/01/31 05:01:12;;;;;;;20.90;5.70;;;7.70;94.40;;;;;;5011967;28;20705;-64
2022/01/31 05:03:40;;;;;;;14.68;4.95;;;7.60;94.40;;;;;;5021713;28;20220;-65
2022/01/31 05:06:08;;;;;;;13.65;4.45;;;7.60;94.50;;;;;;5030272;28;20239;-65
2022/01/31 05:08:36;;;;;;;17.13;5.00;;;7.60;94.60;;;;;;5017128;28;20224;-65
2022/01/31 05:11:07;;;;;;;17.27;6.32;;;7.70;94.60;;;;;;5020327;28;20690;-65
2022/01/31 05:13:37;;;;;;;19.13;4.60;;;7.70;94.60;;;;;;5018382;28;20758;-65
2022/01/31 05:16:04;;;;;;;13.95;6.35;;;7.70;94.60;;;;;;5031366;28;20234;-65
2022/01/31 05:18:31;;;;;;;14.90;5.22;;;7.70;94.50;;;;;;5020173;28;20228;-64
2022/01/31 05:20:58;;;;;;;21.52;4.95;;;7.70;94.40;;;;;;5022881;28;20226;-64
2022/01/31 05:23:25;;;;;;;19.10;5.82;;;7.60;94.50;;;;;;5016165;28;20246;-65
2022/01/31 05:25:52;;;;;;;18.50;6.07;;;7.70;94.60;;;;;;5026978;28;20234;-65
2022/01/31 05:28:20;;;;;;;13.70;4.68;;;7.70;94.60;;;;;;5021647;28;20227;-65
2022/01/31 05:30:47;;;;;;;32.95;6.18;;;7.70;94.70;;;;;;5034355;28;20245;-65
2022/01/31 05:33:13;;;;;;;18.98;6.40;;;7.70;94.50;;;;;;5021527;28;20221;-65
2022/01/31 05:35:40;;;;;;;16.42;4.28;;;7.60;94.50;;;;;;5023409;28;20230;-65
2022/01/31 05:38:07;;;;;;;17.80;5.53;;;7.60;94.40;;;;;;5028332;28;20240;-65
2022/01/31 05:40:34;;;;;;;19.23;5.70;;;7.50;94.40;;;;;;5025954;28;20228;-65
2022/01/31 05:43:01;;;;;;;21.45;6.20;;;7.50;94.40;;;;;;5021764;28;20242;-65
2022/01/31 05:45:30;;;;;;;24.13;5.63;;;7.50;94.40;;;;;;5023135;28;20235;-65
2022/01/31 05:47:56;;;;;;;25.60;6.93;;;7.50;94.40;;;;;;5053030;28;20645;-65
2022/01/31 05:50:23;;;;;;;19.40;7.05;;;7.40;94.30;;;;;;5047512;28;20261;-65
2022/01/31 05:52:50;;;;;;;18.85;6.78;;;7.40;94.30;;;;;;5034228;28;20239;-64
2022/01/31 05:55:17;;;;;;;16.48;9.75;;;7.40;94.20;;;;;;5035651;28;20227;-64
2022/01/31 05:57:44;;;;;;;22.42;8.10;;;7.40;94.30;;;;;;5035461;28;20230;-65
2022/01/31 06:00:12;;;;;;;20.83;7.13;;;7.40;94.40;;;;;;5027969;28;20704;-64
2022/01/31 06:02:41;;;;;;;20.85;6.38;;;7.40;94.40;;;;;;5029612;28;20744;-65
2022/01/31 06:05:08;;;;;;;16.65;5.53;;;7.40;94.40;;;;;;5032727;28;20224;-65
2022/01/31 06:07:35;;;;;;;20.25;8.00;;;7.40;94.40;;;;;;5022212;28;20251;-65
2022/01/31 06:10:02;;;;;;;23.48;7.63;;;7.40;94.30;;;;;;5027938;28;20258;-65
2022/01/31 06:12:29;;;;;;;17.27;5.30;;;7.30;94.50;;;;;;5028658;28;20230;-65
2022/01/31 06:14:56;;;;;;;18.25;5.05;;;7.20;94.10;;;;;;5027347;28;20285;-65
2022/01/31 06:17:23;;;;;;;14.60;4.30;;;7.20;94.20;;;;;;5027072;28;20700;-65
2022/01/31 06:19:51;;;;;;;21.02;5.82;;;7.20;94.20;;;;;;5019850;28;20222;-65
2022/01/31 06:22:18;;;;;;;21.48;7.40;;;7.10;94.20;;;;;;5033830;28;20713;-65
2022/01/31 06:24:44;;;;;;;17.63;5.53;;;7.20;94.40;;;;;;5014170;28;20230;-65
2022/01/31 06:27:11;;;;;;;22.20;6.07;;;7.20;94.30;;;;;;5027129;28;20229;-64
2022/01/31 06:29:38;;;;;;;20.98;6.10;;;7.20;94.20;;;;;;5020172;28;20237;-65
2022/01/31 06:32:05;;;;;;;14.55;5.18;;;7.20;93.90;;;;;;5021201;28;20226;-64
2022/01/31 06:34:32;;;;;;;14.93;5.30;;;7.10;93.90;;;;;;5020774;28;20234;-65
2022/01/31 06:37:04;;;;;;;19.58;5.03;;;7.10;93.90;;;;;;5019928;28;20559;-65
2022/01/31 06:39:31;;;;;;;16.25;4.88;;;7.20;94.10;;;;;;5032998;28;20234;-65
2022/01/31 06:41:58;;;;;;;17.35;5.22;;;7.10;94.10;;;;;;5019911;28;20234;-64
2022/01/31 06:44:24;;;;;;;21.92;7.78;;;7.10;94.20;;;;;;5026179;28;20326;-65
2022/01/31 06:46:51;;;;;;;17.30;6.95;;;7.10;94.00;;;;;;5026667;28;20228;-65
2022/01/31 06:49:18;;;;;;;20.45;8.07;;;7.10;94.00;;;;;;5021401;28;20229;-64
2022/01/31 06:51:45;;;;;;;18.52;9.40;;;7.10;93.90;;;;;;5033041;28;20577;-66
2022/01/31 06:54:14;;;;;;;25.25;7.13;;;7.10;93.90;;;;;;5024787;28;20677;-66
2022/01/31 06:56:42;;;;;;;18.45;5.30;;;7.10;93.90;;;;;;5021966;28;20704;-65
2022/01/31 06:59:09;;;;;;;16.60;6.70;;;7.10;93.80;;;;;;5024005;28;20250;-66
2022/01/31 07:01:36;;;;;;;12.90;7.47;;;7.10;93.90;;;;;;5026821;28;20230;-65
2022/01/31 07:04:03;;;;;;;18.05;6.80;;;7.20;93.90;;;;;;5019958;28;20223;-65
2022/01/31 07:06:29;;;;;;;20.83;7.60;;;7.20;93.80;;;;;;5026625;28;20553;-65
2022/01/31 07:08:58;;;;;;;19.33;7.18;;;7.20;93.80;;;;;;5022916;28;20223;-65
2022/01/31 07:11:31;;;;;;;25.67;8.70;;;7.20;93.80;;;;;;5019775;28;20227;-65
2022/01/31 07:14:06;;;;;;;17.02;7.05;;;7.20;93.80;;;;;;5032639;28;20634;-65
2022/01/31 07:16:34;;;;;;;19.42;7.13;;;7.20;93.80;;;;;;5021207;28;20245;-64
2022/01/31 07:19:07;;;;;;;22.30;8.80;;;7.20;93.70;;;;;;5019566;28;20230;-65
2022/01/31 07:21:39;;;;;;;23.45;7.95;;;7.20;93.80;;;;;;5025971;28;20319;-65
2022/01/31 07:24:19;;;;;;;17.17;6.30;;;7.20;93.70;;;;;;5022654;28;20235;-64
2022/01/31 07:26:48;;;;;;;15.45;6.63;;;7.20;93.70;;;;;;5039405;28;20228;-64
2022/01/31 07:29:15;;;;;;;20.15;7.18;;;7.20;93.80;;;;;;5039583;28;20693;-65
2022/01/31 07:31:44;;;;;;;20.98;7.78;;;7.20;93.70;;;;;;5030796;28;20576;-65
2022/01/31 07:34:15;;;;;;;27.40;6.90;;;7.20;93.80;;;;;;5037909;28;20230;-64
2022/01/31 07:36:41;;;;;;;15.15;6.75;;;7.20;93.70;;;;;;5037761;28;20221;-64
2022/01/31 07:39:08;;;;;;;13.35;5.45;;;7.30;93.80;;;;;;5052225;28;20967;-64
2022/01/31 07:41:35;;;;;;;22.50;5.70;;;7.30;93.80;;;;;;5052715;28;20230;-65
2022/01/31 07:44:04;;;;;;;30.75;9.63;;;7.30;93.90;;;;;;5052077;28;20221;-65
2022/01/31 07:46:31;;;;;;;26.05;10.30;;;7.40;93.80;;;;;;5052081;28;20233;-64
2022/01/31 07:48:57;;;;;;;19.70;7.72;;;7.30;93.80;;;;;;5051531;28;20223;-65
2022/01/31 07:51:24;;;;;;;20.27;6.97;;;7.30;93.60;;;;;;5052263;28;20240;-65
2022/01/31 07:53:51;;;;;;;17.65;5.85;;;7.40;93.70;;;;;;5051928;28;20236;-65
2022/01/31 07:56:20;;;;;;;17.52;6.45;;;7.40;93.60;;;;;;5052640;28;20271;-64
2022/01/31 07:58:46;;;;;;;23.25;6.25;;;7.40;93.50;;;;;;5038688;28;20766;-65
2022/01/31 08:01:15;;;;;;;24.98;6.47;;;7.40;93.60;;;;;;5052279;28;20226;-64
2022/01/31 08:03:42;;;;;;;19.23;6.88;;;7.30;93.40;;;;;;5051061;28;20234;-65
2022/01/31 08:06:09;;;;;;;27.00;7.20;;;7.20;93.20;;;;;;5051750;28;20222;-65
2022/01/31 08:08:36;;;;;;;17.55;8.43;;;7.20;93.40;;;;;;5052315;28;20222;-65
2022/01/31 08:11:05;;;;;;;24.60;7.30;;;7.10;93.50;;;;;;5051790;28;20577;-65
2022/01/31 08:13:33;;;;;;;18.38;9.13;;;7.10;93.80;;;;;;5052035;28;20250;-64
2022/01/31 08:16:09;;;;;;;17.05;9.98;;;7.10;93.50;;;;;;5051833;28;20236;-65
2022/01/31 08:18:39;;;;;;;20.13;9.48;;;7.10;93.60;;;;;;5053367;28;20236;-65
2022/01/31 08:21:06;;;;;;;20.50;8.68;;;7.10;93.70;;;;;;5056970;28;20651;-65
2022/01/31 08:23:33;;;;;;;18.15;6.05;;;7.10;93.70;;;;;;5049814;28;20229;-64
2022/01/31 08:26:01;;;;;;;16.90;6.38;;;7.10;93.80;;;;;;5052247;28;20221;-64
2022/01/31 08:28:35;;;;;;;13.75;6.18;;;7.20;93.70;;;;;;5051890;28;20258;-65
2022/01/31 08:31:07;;;;;;;13.60;5.13;;;7.20;93.80;;;;;;5049746;28;20240;-64
2022/01/31 08:33:37;;;;;;;25.83;7.75;;;7.20;93.90;;;;;;5063409;28;20244;-65
2022/01/31 08:36:07;;;;;;;18.48;6.55;;;7.20;94.00;;;;;;5052134;28;20216;-65
2022/01/31 08:38:35;;;;;;;13.13;5.30;;;7.30;94.00;;;;;;5043293;28;20305;-64
2022/01/31 08:41:03;;;;;;;21.77;7.75;;;7.30;93.90;;;;;;5045728;28;20222;-65
2022/01/31 08:43:30;;;;;;;18.45;5.90;;;7.30;93.70;;;;;;5050237;28;20215;-65
2022/01/31 08:45:58;;;;;;;21.55;6.75;;;7.30;93.70;;;;;;5048901;28;20244;-65
2022/01/31 08:48:27;;;;;;;20.38;7.43;;;7.30;93.80;;;;;;5049302;28;20594;-64
2022/01/31 08:50:54;;;;;;;16.40;5.68;;;7.30;93.80;;;;;;5049755;28;20234;-65
2022/01/31 08:53:23;;;;;;;15.88;5.97;;;7.20;94.00;;;;;;5050617;28;20572;-65
2022/01/31 08:55:51;;;;;;;21.83;8.30;;;7.30;93.90;;;;;;5050991;28;20229;-65
2022/01/31 08:58:19;;;;;;;28.60;8.07;;;7.30;93.90;;;;;;5051548;28;20218;-65
2022/01/31 09:00:49;;;;;;;22.67;7.70;;;7.30;93.90;;;;;;5053255;28;20665;-65
2022/01/31 09:03:39;;;;;;;18.63;9.07;;;7.30;93.90;;;;;;5055458;28;20218;-65
2022/01/31 09:06:07;;;;;;;16.17;6.72;;;7.40;94.00;;;;;;5055425;28;20242;-65
2022/01/31 09:08:36;;;;;;;16.98;6.03;;;7.50;93.90;;;;;;5042455;28;20221;-65
2022/01/31 09:11:06;;;;;;;23.05;7.35;;;7.50;93.80;;;;;;5054987;28;20230;-65
2022/01/31 09:13:34;;;;;;;16.40;6.20;;;7.40;93.70;;;;;;5055556;28;20221;-65
2022/01/31 09:16:01;;;;;;;27.92;7.10;;;7.40;93.70;;;;;;5055202;28;20222;-65
2022/01/31 09:18:28;;;;;;;11.60;5.40;;;7.50;93.60;;;;;;5055301;28;20234;-65
2022/01/31 09:20:57;;;;;;;17.30;6.05;;;7.50;93.70;;;;;;5054669;28;20222;-66
2022/01/31 09:23:24;;;;;;;17.60;5.75;;;7.50;93.70;;;;;;5053634;28;20641;-65
2022/01/31 09:25:52;;;;;;;13.18;5.40;;;7.50;93.60;;;;;;5050826;28;20693;-65
2022/01/31 09:28:19;;;;;;;16.77;4.40;;;7.60;93.60;;;;;;5031944;28;20235;-65
2022/01/31 09:30:48;;;;;;;19.88;6.65;;;7.60;93.60;;;;;;5031267;28;20307;-65
2022/01/31 09:33:16;;;;;;;14.82;6.93;;;7.70;93.40;;;;;;5034923;28;20677;-65
2022/01/31 09:35:43;;;;;;;15.27;6.53;;;7.70;93.40;;;;;;5035194;28;20223;-65
2022/01/31 09:38:13;;;;;;;14.30;5.63;;;7.80;93.30;;;;;;5034830;28;20249;-66
2022/01/31 09:40:41;;;;;;;22.05;6.78;;;7.80;93.20;;;;;;5034829;28;20227;-65
2022/01/31 09:43:50;;;;;;;21.65;5.18;;;7.90;93.20;;;;;;5043064;28;20237;-65
2022/01/31 09:46:15;;;;;;;18.63;6.93;;;7.90;93.10;;;;;;5039866;28;20307;-64
2022/01/31 09:48:44;;;;;;;17.85;6.22;;;8.00;93.10;;;;;;5038187;28;20223;-65
2022/01/31 09:51:13;;;;;;;28.60;5.45;;;8.00;92.60;;;;;;5023761;28;20237;-65
2022/01/31 09:53:42;;;;;;;16.30;6.30;;;8.00;92.40;;;;;;5032920;28;20634;-65
2022/01/31 09:56:11;;;;;;;16.95;6.28;;;8.00;92.30;;;;;;5034548;28;20225;-65
2022/01/31 09:58:41;;;;;;;22.05;6.53;;;8.00;92.30;;;;;;5034907;28;20850;-66
2022/01/31 10:01:09;;;;;;;14.57;7.00;;;8.00;92.30;;;;;;5034303;28;20224;-65
2022/01/31 10:03:48;;;;;;;15.30;5.82;;;8.00;92.40;;;;;;5034751;28;20223;-65
2022/01/31 10:06:22;;;;;;;14.07;6.13;;;8.10;92.50;;;;;;5034134;28;20254;-64
2022/01/31 10:08:59;;;;;;;17.05;6.95;;;8.10;92.40;;;;;;5034699;28;20238;-65
2022/01/31 10:11:28;;;;;;;16.77;5.88;;;8.10;92.40;;;;;;5033189;28;20959;-64
2022/01/31 10:16:55;;;;;;;13.18;6.10;;;8.20;92.40;;;;;;5034438;28;20298;-64
2022/01/31 10:19:21;;;;;;;21.25;7.57;;;8.20;92.10;;;;;;5020739;28;20250;-65
2022/01/31 10:22:01;;;;;;;16.70;6.10;;;8.20;92.10;;;;;;5024655;28;20714;-65
2022/01/31 10:24:29;;;;;;;13.98;6.07;;;8.10;92.00;;;;;;5026105;28;20223;-65
2022/01/31 10:26:56;;;;;;;18.60;7.85;;;8.10;92.20;;;;;;5022453;28;20232;-64
2022/01/31 10:29:26;;;;;;;17.60;6.60;;;8.10;92.20;;;;;;5023044;28;20258;-65
2022/01/31 10:31:58;;;;;;;11.20;6.45;;;8.10;92.30;;;;;;5027395;28;20602;-65
2022/01/31 10:34:26;;;;;;;16.80;7.15;;;8.10;92.30;;;;;;5025080;28;20685;-65
2022/01/31 10:36:53;;;;;;;9.60;5.55;;;8.10;92.30;;;;;;5020280;28;20231;-65
2022/01/31 10:51:52;;;;;;;18.98;5.93;;;8.20;92.30;;;;;;5017788;28;20290;-65
2022/01/31 10:54:37;;;;;;;13.25;5.32;;;8.20;92.30;;;;;;5026912;28;20721;-65
2022/01/31 10:57:06;;;;;;;17.27;6.28;;;8.10;92.50;;;;;;5023862;28;20227;-65
2022/01/31 10:59:35;;;;;;;10.85;5.50;;;8.10;92.60;;;;;;5020435;28;20224;-65
2022/01/31 11:02:06;;;;;;;10.82;5.13;;;8.20;93.00;;;;;;5022444;28;20227;-65
2022/01/31 11:04:35;;;;;;;16.85;6.88;;;8.20;92.40;;;;;;5027066;28;20223;-64
2022/01/31 11:07:06;;;;;;;13.98;6.07;;;8.20;92.40;;;;;;5025551;28;20230;-64
2022/01/31 11:09:33;;;;;;;17.13;7.28;;;8.30;92.30;;;;;;5020314;28;20616;-65
2022/01/31 11:12:00;;;;;;;19.50;8.23;;;8.30;92.40;;;;;;5020318;28;20224;-65
2022/01/31 11:14:27;;;;;;;12.63;5.45;;;8.30;92.40;;;;;;5033399;28;20567;-64
2022/01/31 11:16:56;;;;;;;14.90;4.72;;;8.40;92.30;;;;;;5019998;28;20238;-65
2022/01/31 11:19:31;;;;;;;16.45;6.55;;;8.40;92.30;;;;;;5026179;28;20231;-64
2022/01/31 11:22:02;;;;;;;17.05;6.88;;;8.40;92.20;;;;;;5026304;28;20306;-65
2022/01/31 11:24:33;;;;;;;19.58;7.00;;;8.40;92.10;;;;;;5012862;28;20247;-65
2022/01/31 11:27:05;;;;;;;18.42;6.80;;;8.40;91.90;;;;;;5026182;28;20255;-65
2022/01/31 11:29:35;;;;;;;19.73;7.97;;;8.40;91.90;;;;;;5013764;28;20808;-65
2022/01/31 11:32:03;;;;;;;11.55;4.70;;;8.50;92.10;;;;;;5030995;28;20230;-66
2022/01/31 11:34:31;;;;;;;15.85;5.43;;;8.40;92.00;;;;;;5022047;28;20231;-65
2022/01/31 11:36:58;;;;;;;16.98;7.05;;;8.50;92.00;;;;;;5025938;28;20228;-65
2022/01/31 11:39:25;;;;;;;11.48;5.65;;;8.50;91.90;;;;;;5025071;28;20222;-65
2022/01/31 11:41:55;;;;;;;17.88;6.45;;;8.60;91.90;;;;;;5019407;28;20621;-65
2022/01/31 11:44:42;;;;;;;19.02;6.45;;;8.60;91.90;;;;;;5021119;28;21003;-64
2022/01/31 11:47:10;;;;;;;16.30;6.82;;;8.60;91.50;;;;;;5020847;28;20579;-64
2022/01/31 11:49:46;;;;;;;14.43;6.35;;;8.60;91.50;;;;;;5019566;28;20231;-65
2022/01/31 11:52:14;;;;;;;17.10;6.50;;;8.60;91.60;;;;;;5022576;28;20238;-64
2022/01/31 11:54:48;;;;;;;18.90;6.45;;;8.60;91.60;;;;;;5019537;28;20223;-65
2022/01/31 11:57:18;;;;;;;14.45;6.25;;;8.60;91.50;;;;;;5021313;28;20224;-65
2022/01/31 11:59:45;;;;;;;15.60;5.75;;;8.50;91.30;;;;;;5026304;28;20219;-64
2022/01/31 12:02:15;;;;;;;18.23;6.22;;;8.60;91.60;;;;;;5024227;28;20716;-64
2022/01/31 12:04:49;;;;;;;22.70;8.25;;;8.60;91.40;;;;;;5015507;28;20227;-65
2022/01/31 12:07:36;;;;;;;15.57;6.95;;;8.60;91.30;;;;;;5025726;28;20321;-65
2022/01/31 12:10:03;;;;;;;26.48;7.28;;;8.60;91.40;;;;;;5021987;28;20230;-64
2022/01/31 12:12:38;;;;;;;21.92;6.38;;;8.70;91.60;;;;;;5019177;28;20237;-65
2022/01/31 12:18:40;;;;;;;17.02;6.10;;;8.70;91.60;;;;;;5023025;28;20237;-64
2022/01/31 12:23:58;;;;;;;14.10;6.15;;;8.80;91.60;;;;;;5026333;28;20231;-65
2022/01/31 12:26:30;;;;;;;16.95;6.55;;;8.80;91.70;;;;;;5021803;28;20224;-65
2022/01/31 12:28:58;;;;;;;23.25;7.07;;;8.80;91.40;;;;;;5025643;28;20221;-65
2022/01/31 12:31:29;;;;;;;15.55;7.30;;;8.80;91.40;;;;;;5024142;28;20305;-65
2022/01/31 12:33:56;;;;;;;21.35;6.88;;;8.70;91.20;;;;;;5019268;28;20299;-66
2022/01/31 12:36:49;;;;;;;12.52;5.70;;;8.70;91.50;;;;;;5023327;28;20240;-66
2022/01/31 12:40:02;;;;;;;25.30;8.88;;;8.80;91.60;;;;;;5026182;28;20242;-66
2022/01/31 12:42:57;;;;;;;17.30;5.78;;;8.70;91.50;;;;;;5012358;28;20615;-64
2022/01/31 12:45:31;;;;;;;11.27;7.38;;;8.80;91.30;;;;;;5023292;28;20709;-65
2022/01/31 12:48:16;;;;;;;18.38;7.35;;;8.80;91.00;;;;;;5022947;28;20689;-65
2022/01/31 12:50:45;;;;;;;16.77;6.75;;;8.70;90.90;;;;;;5025973;28;20258;-64
2022/01/31 12:53:43;;;;;;;14.20;7.53;;;8.70;91.00;;;;;;5029224;28;20322;-65
2022/01/31 12:56:14;;;;;;;14.43;6.53;;;8.70;90.90;;;;;;5029286;28;20319;-65
2022/01/31 12:58:44;;;;;;;23.35;8.15;;;8.80;91.00;;;;;;5025621;28;20231;-65
2022/01/31 13:01:11;;;;;;;13.82;6.35;;;8.70;90.90;;;;;;5022262;28;20240;-65
2022/01/31 13:03:40;;;;;;;22.80;8.43;;;8.70;91.00;;;;;;5026012;28;20703;-65
2022/01/31 13:06:23;;;;;;;13.88;6.43;;;8.80;91.10;;;;;;5021116;28;20228;-65
2022/01/31 13:08:52;;;;;;;19.25;6.35;;;8.80;91.30;;;;;;5022751;28;20300;-65
2022/01/31 13:11:19;;;;;;;20.00;7.72;;;8.80;91.10;;;;;;5029456;28;20229;-66
2022/01/31 13:13:46;;;;;;;20.40;7.05;;;8.80;90.90;;;;;;5028818;28;20247;-64
2022/01/31 13:16:15;;;;;;;13.38;5.50;;;8.80;91.10;;;;;;5028756;28;20593;-64
2022/01/31 13:18:43;;;;;;;22.38;9.13;;;8.80;90.80;;;;;;5028217;28;20218;-64
2022/01/31 13:21:12;;;;;;;21.02;10.27;;;8.80;90.70;;;;;;5027506;28;20235;-64